sensor_id;sensor_type;location;lat;lon;timestamp;pressure;altitude;pressure_sealevel;temperature;humidity
61674;BME280;47573;43.832;5.974;2022-12-18T00:00:09;95828.78;;;21.11;78.95
61674;BME280;47573;43.832;5.974;2022-12-18T00:01:49;95839.22;;;21.07;79.12
61674;BME280;47573;43.832;5.974;2022-12-18T00:03:30;95832.34;;;21.05;78.99
61674;BME280;47573;43.832;5.974;2022-12-18T00:05:10;95821.28;;;21.00;78.83
61674;BME280;47573;43.832;5.974;2022-12-18T00:06:51;95830.06;;;21.02;78.89
61674;BME280;47573;43.832;5.974;2022-12-18T00:08:34;95836.97;;;20.98;78.79
61674;BME280;47573;43.832;5.974;2022-12-18T00:10:14;95830.94;;;20.96;78.87
61674;BME280;47573;43.832;5.974;2022-12-18T00:11:55;95835.94;;;20.92;79.04
61674;BME280;47573;43.832;5.974;2022-12-18T00:13:35;95828.88;;;20.91;79.02
61674;BME280;47573;43.832;5.974;2022-12-18T00:15:16;95838.50;;;20.87;79.21
61674;BME280;47573;43.832;5.974;2022-12-18T00:16:56;95832.69;;;20.83;78.85
61674;BME280;47573;43.832;5.974;2022-12-18T00:18:37;95836.41;;;20.82;78.90
61674;BME280;47573;43.832;5.974;2022-12-18T00:20:17;95838.53;;;20.80;78.89
61674;BME280;47573;43.832;5.974;2022-12-18T00:21:58;95829.75;;;20.78;78.92
61674;BME280;47573;43.832;5.974;2022-12-18T00:23:41;95839.16;;;20.76;79.03
61674;BME280;47573;43.832;5.974;2022-12-18T00:25:22;95838.56;;;20.74;78.70
61674;BME280;47573;43.832;5.974;2022-12-18T00:27:03;95843.13;;;20.73;78.85
61674;BME280;47573;43.832;5.974;2022-12-18T00:28:44;95846.31;;;20.70;78.92
61674;BME280;47573;43.832;5.974;2022-12-18T00:30:25;95852.75;;;20.69;78.64
61674;BME280;47573;43.832;5.974;2022-12-18T00:32:05;95853.00;;;20.68;78.68
61674;BME280;47573;43.832;5.974;2022-12-18T00:33:46;95862.38;;;20.65;78.59
61674;BME280;47573;43.832;5.974;2022-12-18T00:35:27;95859.06;;;20.63;78.76
61674;BME280;47573;43.832;5.974;2022-12-18T00:37:07;95862.84;;;20.62;78.87
61674;BME280;47573;43.832;5.974;2022-12-18T00:38:49;95863.06;;;20.61;78.86
61674;BME280;47573;43.832;5.974;2022-12-18T00:40:30;95868.69;;;20.59;78.65
61674;BME280;47573;43.832;5.974;2022-12-18T00:42:10;95868.91;;;20.58;79.03
61674;BME280;47573;43.832;5.974;2022-12-18T00:43:51;95886.44;;;20.55;78.81
61674;BME280;47573;43.832;5.974;2022-12-18T00:45:31;95883.94;;;20.54;79.04
61674;BME280;47573;43.832;5.974;2022-12-18T00:47:12;95878.13;;;20.50;78.80
61674;BME280;47573;43.832;5.974;2022-12-18T00:48:52;95882.94;;;20.48;79.21
61674;BME280;47573;43.832;5.974;2022-12-18T00:50:33;95888.34;;;20.48;79.23
61674;BME280;47573;43.832;5.974;2022-12-18T00:52:13;95891.88;;;20.49;79.08
61674;BME280;47573;43.832;5.974;2022-12-18T00:53:55;95893.13;;;20.53;78.74
61674;BME280;47573;43.832;5.974;2022-12-18T00:55:37;95892.09;;;20.47;79.23
61674;BME280;47573;43.832;5.974;2022-12-18T00:57:17;95888.38;;;20.42;79.29
61674;BME280;47573;43.832;5.974;2022-12-18T00:58:58;95892.94;;;20.41;79.52
61674;BME280;47573;43.832;5.974;2022-12-18T01:00:38;95886.28;;;20.37;79.11
61674;BME280;47573;43.832;5.974;2022-12-18T01:02:19;95895.44;;;20.36;79.35
61674;BME280;47573;43.832;5.974;2022-12-18T01:04:00;95900.06;;;20.36;79.34
61674;BME280;47573;43.832;5.974;2022-12-18T01:05:41;95902.97;;;20.34;79.02
61674;BME280;47573;43.832;5.974;2022-12-18T01:07:22;95896.94;;;20.32;79.07
61674;BME280;47573;43.832;5.974;2022-12-18T01:09:04;95904.25;;;20.32;79.27
61674;BME280;47573;43.832;5.974;2022-12-18T01:10:44;95905.50;;;20.29;79.45
61674;BME280;47573;43.832;5.974;2022-12-18T01:12:25;95907.59;;;20.27;79.17
61674;BME280;47573;43.832;5.974;2022-12-18T01:14:05;95905.91;;;20.26;79.28
61674;BME280;47573;43.832;5.974;2022-12-18T01:15:48;95911.34;;;20.26;79.22
61674;BME280;47573;43.832;5.974;2022-12-18T01:17:28;95916.38;;;20.23;79.44
61674;BME280;47573;43.832;5.974;2022-12-18T01:19:09;95919.28;;;20.21;79.20
61674;BME280;47573;43.832;5.974;2022-12-18T01:20:49;95922.00;;;20.21;79.24
61674;BME280;47573;43.832;5.974;2022-12-18T01:22:30;95925.94;;;20.19;79.40
61674;BME280;47573;43.832;5.974;2022-12-18T01:24:12;95935.94;;;20.18;79.42
61674;BME280;47573;43.832;5.974;2022-12-18T01:25:52;95934.28;;;20.17;79.30
61674;BME280;47573;43.832;5.974;2022-12-18T01:27:33;95930.94;;;20.15;79.32
61674;BME280;47573;43.832;5.974;2022-12-18T01:29:14;95931.34;;;20.12;79.53
61674;BME280;47573;43.832;5.974;2022-12-18T01:30:54;95940.53;;;20.11;79.21
61674;BME280;47573;43.832;5.974;2022-12-18T01:32:35;95937.19;;;20.09;79.14
61674;BME280;47573;43.832;5.974;2022-12-18T01:34:15;95941.97;;;20.07;79.24
61674;BME280;47573;43.832;5.974;2022-12-18T01:35:56;95946.38;;;20.08;79.28
61674;BME280;47573;43.832;5.974;2022-12-18T01:37:36;95941.38;;;20.05;79.15
61674;BME280;47573;43.832;5.974;2022-12-18T01:39:18;95938.03;;;20.03;79.23
61674;BME280;47573;43.832;5.974;2022-12-18T01:40:59;95948.06;;;20.02;79.19
61674;BME280;47573;43.832;5.974;2022-12-18T01:42:40;95947.22;;;20.02;79.00
61674;BME280;47573;43.832;5.974;2022-12-18T01:44:59;95951.81;;;20.08;78.70
61674;BME280;47573;43.832;5.974;2022-12-18T01:46:40;95953.25;;;20.04;78.87
61674;BME280;47573;43.832;5.974;2022-12-18T01:48:21;95949.50;;;20.05;78.99
61674;BME280;47573;43.832;5.974;2022-12-18T01:50:05;95952.19;;;20.05;78.71
61674;BME280;47573;43.832;5.974;2022-12-18T01:51:47;95949.31;;;20.00;78.65
61674;BME280;47573;43.832;5.974;2022-12-18T01:53:27;95958.91;;;19.96;78.75
61674;BME280;47573;43.832;5.974;2022-12-18T01:55:11;95964.50;;;19.94;79.06
61674;BME280;47573;43.832;5.974;2022-12-18T01:56:52;95961.59;;;19.89;78.92
61674;BME280;47573;43.832;5.974;2022-12-18T01:58:37;95968.91;;;19.89;78.97
61674;BME280;47573;43.832;5.974;2022-12-18T02:00:21;95959.28;;;19.86;79.02
61674;BME280;47573;43.832;5.974;2022-12-18T02:02:03;95962.22;;;19.85;79.16
61674;BME280;47573;43.832;5.974;2022-12-18T02:03:44;95958.88;;;19.83;78.75
61674;BME280;47573;43.832;5.974;2022-12-18T02:05:36;95968.06;;;19.82;78.76
61674;BME280;47573;43.832;5.974;2022-12-18T02:07:25;95970.13;;;19.80;79.08
61674;BME280;47573;43.832;5.974;2022-12-18T02:09:16;95962.44;;;19.77;78.81
61674;BME280;47573;43.832;5.974;2022-12-18T02:11:05;95970.56;;;19.77;78.81
61674;BME280;47573;43.832;5.974;2022-12-18T02:12:50;95975.97;;;19.77;78.78
61674;BME280;47573;43.832;5.974;2022-12-18T02:14:38;95978.28;;;19.73;79.00
61674;BME280;47573;43.832;5.974;2022-12-18T02:16:23;95974.72;;;19.73;78.97
61674;BME280;47573;43.832;5.974;2022-12-18T02:18:07;95978.47;;;19.72;78.89
61674;BME280;47573;43.832;5.974;2022-12-18T02:20:02;95983.25;;;19.70;78.85
61674;BME280;47573;43.832;5.974;2022-12-18T02:21:48;95985.97;;;19.70;79.04
61674;BME280;47573;43.832;5.974;2022-12-18T02:23:45;95987.88;;;19.69;78.78
61674;BME280;47573;43.832;5.974;2022-12-18T02:25:38;95979.28;;;19.66;78.73
61674;BME280;47573;43.832;5.974;2022-12-18T02:27:22;95979.28;;;19.66;78.52
61674;BME280;47573;43.832;5.974;2022-12-18T02:29:05;95985.75;;;19.65;78.60
61674;BME280;47573;43.832;5.974;2022-12-18T02:30:50;95978.88;;;19.62;78.66
61674;BME280;47573;43.832;5.974;2022-12-18T02:32:36;95995.97;;;19.63;78.75
61674;BME280;47573;43.832;5.974;2022-12-18T02:34:19;95992.63;;;19.61;78.61
61674;BME280;47573;43.832;5.974;2022-12-18T02:36:02;95986.34;;;19.54;78.67
61674;BME280;47573;43.832;5.974;2022-12-18T02:37:44;95993.25;;;19.56;78.63
61674;BME280;47573;43.832;5.974;2022-12-18T02:39:26;95994.28;;;19.55;78.43
61674;BME280;47573;43.832;5.974;2022-12-18T02:41:10;95997.19;;;19.54;78.69
61674;BME280;47573;43.832;5.974;2022-12-18T02:42:52;95985.72;;;19.52;78.39
61674;BME280;47573;43.832;5.974;2022-12-18T02:44:32;95990.53;;;19.50;78.68
61674;BME280;47573;43.832;5.974;2022-12-18T02:46:25;95988.44;;;19.52;78.55
61674;BME280;47573;43.832;5.974;2022-12-18T02:48:07;96003.03;;;19.51;78.72
61674;BME280;47573;43.832;5.974;2022-12-18T02:49:54;95996.31;;;19.47;78.62
61674;BME280;47573;43.832;5.974;2022-12-18T02:51:45;95997.16;;;19.47;78.44
61674;BME280;47573;43.832;5.974;2022-12-18T02:53:35;95998.00;;;19.48;78.43
61674;BME280;47573;43.832;5.974;2022-12-18T02:55:26;96000.50;;;19.43;78.54
61674;BME280;47573;43.832;5.974;2022-12-18T02:57:14;95992.38;;;19.43;78.30
61674;BME280;47573;43.832;5.974;2022-12-18T02:59:00;95996.34;;;19.40;78.32
61674;BME280;47573;43.832;5.974;2022-12-18T03:00:46;96000.91;;;19.40;78.31
61674;BME280;47573;43.832;5.974;2022-12-18T03:02:35;96000.50;;;19.36;78.27
61674;BME280;47573;43.832;5.974;2022-12-18T03:04:20;96006.72;;;19.37;78.19
61674;BME280;47573;43.832;5.974;2022-12-18T03:06:06;96001.72;;;19.34;78.11
61674;BME280;47573;43.832;5.974;2022-12-18T03:07:51;95996.31;;;19.34;78.27
61674;BME280;47573;43.832;5.974;2022-12-18T03:09:36;95996.69;;;19.31;78.25
61674;BME280;47573;43.832;5.974;2022-12-18T03:11:18;96000.84;;;19.33;78.11
61674;BME280;47573;43.832;5.974;2022-12-18T03:13:02;96004.81;;;19.31;78.00
61674;BME280;47573;43.832;5.974;2022-12-18T03:14:49;95998.75;;;19.28;77.99
61674;BME280;47573;43.832;5.974;2022-12-18T03:16:33;95999.59;;;19.29;77.80
61674;BME280;47573;43.832;5.974;2022-12-18T03:18:18;96000.84;;;19.26;77.90
61674;BME280;47573;43.832;5.974;2022-12-18T03:20:05;95993.75;;;19.25;77.96
61674;BME280;47573;43.832;5.974;2022-12-18T03:21:49;96003.13;;;19.23;77.81
61674;BME280;47573;43.832;5.974;2022-12-18T03:23:35;95996.22;;;19.20;77.92
61674;BME280;47573;43.832;5.974;2022-12-18T03:25:17;96003.34;;;19.21;77.94
61674;BME280;47573;43.832;5.974;2022-12-18T03:27:01;96012.47;;;19.20;77.76
61674;BME280;47573;43.832;5.974;2022-12-18T03:28:47;96017.88;;;19.20;77.77
61674;BME280;47573;43.832;5.974;2022-12-18T03:30:32;96014.56;;;19.18;77.95
61674;BME280;47573;43.832;5.974;2022-12-18T03:32:16;96015.41;;;19.19;77.96
61674;BME280;47573;43.832;5.974;2022-12-18T03:34:02;96022.03;;;19.16;77.75
61674;BME280;47573;43.832;5.974;2022-12-18T03:35:44;96016.63;;;19.16;77.64
61674;BME280;47573;43.832;5.974;2022-12-18T03:37:25;96018.69;;;19.14;77.65
61674;BME280;47573;43.832;5.974;2022-12-18T03:39:06;96009.94;;;19.12;77.74
61674;BME280;47573;43.832;5.974;2022-12-18T03:40:56;96012.44;;;19.14;77.63
61674;BME280;47573;43.832;5.974;2022-12-18T03:42:43;96010.97;;;19.11;77.69
61674;BME280;47573;43.832;5.974;2022-12-18T03:44:29;96012.88;;;19.11;77.60
61674;BME280;47573;43.832;5.974;2022-12-18T03:46:18;96022.84;;;19.10;77.45
61674;BME280;47573;43.832;5.974;2022-12-18T03:48:05;96022.84;;;19.10;77.36
61674;BME280;47573;43.832;5.974;2022-12-18T03:49:52;96020.34;;;19.09;77.54
61674;BME280;47573;43.832;5.974;2022-12-18T03:51:40;96024.94;;;19.08;77.34
61674;BME280;47573;43.832;5.974;2022-12-18T03:53:28;96022.59;;;19.05;77.63
61674;BME280;47573;43.832;5.974;2022-12-18T03:55:12;96024.50;;;19.05;77.61
61674;BME280;47573;43.832;5.974;2022-12-18T03:56:57;96029.06;;;19.04;77.43
61674;BME280;47573;43.832;5.974;2022-12-18T03:58:39;96029.47;;;19.01;77.32
61674;BME280;47573;43.832;5.974;2022-12-18T04:00:20;96029.28;;;19.03;77.30
61674;BME280;47573;43.832;5.974;2022-12-18T04:02:04;96034.88;;;19.01;77.67
61674;BME280;47573;43.832;5.974;2022-12-18T04:03:47;96036.56;;;19.02;77.47
61674;BME280;47573;43.832;5.974;2022-12-18T04:05:30;96031.53;;;18.99;77.56
61674;BME280;47573;43.832;5.974;2022-12-18T04:07:13;96039.03;;;18.97;77.54
61674;BME280;47573;43.832;5.974;2022-12-18T04:08:54;96038.63;;;19.00;77.58
61674;BME280;47573;43.832;5.974;2022-12-18T04:10:36;96049.47;;;19.00;77.49
61674;BME280;47573;43.832;5.974;2022-12-18T04:12:17;96041.50;;;18.99;77.49
61674;BME280;47573;43.832;5.974;2022-12-18T04:13:58;96047.13;;;18.97;77.49
61674;BME280;47573;43.832;5.974;2022-12-18T04:15:38;96044.84;;;18.94;77.31
61674;BME280;47573;43.832;5.974;2022-12-18T04:17:21;96055.69;;;18.94;77.26
61674;BME280;47573;43.832;5.974;2022-12-18T04:19:02;96050.66;;;18.91;77.12
61674;BME280;47573;43.832;5.974;2022-12-18T04:20:43;96048.56;;;18.93;77.39
61674;BME280;47573;43.832;5.974;2022-12-18T04:22:23;96054.41;;;18.90;77.45
61674;BME280;47573;43.832;5.974;2022-12-18T04:24:04;96047.31;;;18.89;77.23
61674;BME280;47573;43.832;5.974;2022-12-18T04:25:45;96050.22;;;18.88;77.34
61674;BME280;47573;43.832;5.974;2022-12-18T04:27:25;96051.06;;;18.88;77.35
61674;BME280;47573;43.832;5.974;2022-12-18T04:29:06;96050.22;;;18.88;77.25
61674;BME280;47573;43.832;5.974;2022-12-18T04:30:46;96056.47;;;18.88;77.03
61674;BME280;47573;43.832;5.974;2022-12-18T04:32:28;96056.47;;;18.88;77.00
61674;BME280;47573;43.832;5.974;2022-12-18T04:34:08;96057.28;;;18.89;77.03
61674;BME280;47573;43.832;5.974;2022-12-18T04:35:49;96060.63;;;18.84;77.28
61674;BME280;47573;43.832;5.974;2022-12-18T04:37:29;96064.34;;;18.83;77.11
61674;BME280;47573;43.832;5.974;2022-12-18T04:39:10;96067.03;;;18.83;77.08
61674;BME280;47573;43.832;5.974;2022-12-18T04:40:50;96067.25;;;18.82;77.28
61674;BME280;47573;43.832;5.974;2022-12-18T04:42:31;96078.88;;;18.82;77.28
61674;BME280;47573;43.832;5.974;2022-12-18T04:44:13;96088.06;;;18.81;77.26
61674;BME280;47573;43.832;5.974;2022-12-18T04:45:53;96075.53;;;18.80;77.08
61674;BME280;47573;43.832;5.974;2022-12-18T04:47:42;96082.00;;;18.79;77.23
61674;BME280;47573;43.832;5.974;2022-12-18T04:49:22;96084.72;;;18.79;77.54
61674;BME280;47573;43.832;5.974;2022-12-18T04:51:03;96084.06;;;18.77;77.59
61674;BME280;47573;43.832;5.974;2022-12-18T04:52:44;96095.53;;;18.79;76.96
61674;BME280;47573;43.832;5.974;2022-12-18T04:54:24;96103.00;;;18.77;76.96
61674;BME280;47573;43.832;5.974;2022-12-18T04:56:07;96099.25;;;18.78;76.72
61674;BME280;47573;43.832;5.974;2022-12-18T04:57:47;96089.31;;;18.85;76.64
61674;BME280;47573;43.832;5.974;2022-12-18T04:59:28;96097.66;;;18.84;76.41
61674;BME280;47573;43.832;5.974;2022-12-18T05:01:09;96095.13;;;18.82;76.58
61674;BME280;47573;43.832;5.974;2022-12-18T05:02:52;96101.31;;;18.76;76.76
61674;BME280;47573;43.832;5.974;2022-12-18T05:04:32;96106.31;;;18.73;76.86
61674;BME280;47573;43.832;5.974;2022-12-18T05:06:12;96105.47;;;18.72;76.76
61674;BME280;47573;43.832;5.974;2022-12-18T05:07:53;96107.53;;;18.70;77.11
61674;BME280;47573;43.832;5.974;2022-12-18T05:09:33;96115.00;;;18.68;77.11
61674;BME280;47573;43.832;5.974;2022-12-18T05:11:15;96111.66;;;18.66;77.02
61674;BME280;47573;43.832;5.974;2022-12-18T05:12:55;96118.28;;;18.64;77.36
61674;BME280;47573;43.832;5.974;2022-12-18T05:14:36;96117.50;;;18.63;77.16
61674;BME280;47573;43.832;5.974;2022-12-18T05:16:16;96116.44;;;18.64;77.10
61674;BME280;47573;43.832;5.974;2022-12-18T05:17:59;96112.06;;;18.63;77.07
61674;BME280;47573;43.832;5.974;2022-12-18T05:19:40;96116.84;;;18.61;77.06
61674;BME280;47573;43.832;5.974;2022-12-18T05:21:20;96115.16;;;18.60;77.12
61674;BME280;47573;43.832;5.974;2022-12-18T05:23:01;96112.25;;;18.62;76.96
61674;BME280;47573;43.832;5.974;2022-12-18T05:24:41;96112.44;;;18.60;77.05
61674;BME280;47573;43.832;5.974;2022-12-18T05:26:22;96114.53;;;18.58;77.05
61674;BME280;47573;43.832;5.974;2022-12-18T05:28:02;96114.53;;;18.58;76.85
61674;BME280;47573;43.832;5.974;2022-12-18T05:29:43;96117.44;;;18.57;77.08
61674;BME280;47573;43.832;5.974;2022-12-18T05:31:23;96129.09;;;18.57;76.98
61674;BME280;47573;43.832;5.974;2022-12-18T05:33:05;96127.41;;;18.56;76.95
61674;BME280;47573;43.832;5.974;2022-12-18T05:34:45;96130.31;;;18.55;77.03
61674;BME280;47573;43.832;5.974;2022-12-18T05:36:26;96127.81;;;18.53;77.15
61674;BME280;47573;43.832;5.974;2022-12-18T05:38:06;96122.78;;;18.50;77.17
61674;BME280;47573;43.832;5.974;2022-12-18T05:39:47;96119.44;;;18.48;77.10
61674;BME280;47573;43.832;5.974;2022-12-18T05:41:27;96128.19;;;18.50;77.00
61674;BME280;47573;43.832;5.974;2022-12-18T05:43:08;96133.59;;;18.50;77.02
61674;BME280;47573;43.832;5.974;2022-12-18T05:44:48;96130.25;;;18.48;76.92
61674;BME280;47573;43.832;5.974;2022-12-18T05:46:29;96137.72;;;18.46;77.15
61674;BME280;47573;43.832;5.974;2022-12-18T05:48:12;96136.03;;;18.45;76.96
61674;BME280;47573;43.832;5.974;2022-12-18T05:49:52;96136.41;;;18.42;77.14
61674;BME280;47573;43.832;5.974;2022-12-18T05:51:33;96145.19;;;18.44;77.04
61674;BME280;47573;43.832;5.974;2022-12-18T05:53:14;96136.41;;;18.42;76.79
61674;BME280;47573;43.832;5.974;2022-12-18T05:54:55;96143.47;;;18.43;76.96
61674;BME280;47573;43.832;5.974;2022-12-18T05:56:36;96141.81;;;18.42;76.97
61674;BME280;47573;43.832;5.974;2022-12-18T05:58:16;96135.56;;;18.41;76.91
61674;BME280;47573;43.832;5.974;2022-12-18T05:59:56;96148.44;;;18.39;76.98
61674;BME280;47573;43.832;5.974;2022-12-18T06:01:37;96151.78;;;18.41;76.77
61674;BME280;47573;43.832;5.974;2022-12-18T06:03:19;96150.94;;;18.41;76.74
61674;BME280;47573;43.832;5.974;2022-12-18T06:04:59;96146.59;;;18.40;76.87
61674;BME280;47573;43.832;5.974;2022-12-18T06:06:40;96154.06;;;18.38;76.80
61674;BME280;47573;43.832;5.974;2022-12-18T06:08:20;96156.75;;;18.38;76.92
61674;BME280;47573;43.832;5.974;2022-12-18T06:10:01;96160.47;;;18.37;76.79
61674;BME280;47573;43.832;5.974;2022-12-18T06:11:42;96155.06;;;18.37;76.82
61674;BME280;47573;43.832;5.974;2022-12-18T06:13:22;96160.88;;;18.34;76.73
61674;BME280;47573;43.832;5.974;2022-12-18T06:15:03;96160.47;;;18.37;76.80
61674;BME280;47573;43.832;5.974;2022-12-18T06:16:44;96170.72;;;18.41;76.42
61674;BME280;47573;43.832;5.974;2022-12-18T06:18:25;96165.78;;;18.45;76.52
61674;BME280;47573;43.832;5.974;2022-12-18T06:20:07;96172.25;;;18.44;76.17
61674;BME280;47573;43.832;5.974;2022-12-18T06:21:47;96170.53;;;18.43;76.04
61674;BME280;47573;43.832;5.974;2022-12-18T06:23:28;96167.81;;;18.43;76.20
61674;BME280;47573;43.832;5.974;2022-12-18T06:25:09;96170.53;;;18.43;76.20
61674;BME280;47573;43.832;5.974;2022-12-18T06:26:49;96168.84;;;18.42;76.01
61674;BME280;47573;43.832;5.974;2022-12-18T06:28:29;96165.50;;;18.40;76.08
61674;BME280;47573;43.832;5.974;2022-12-18T06:30:11;96168.22;;;18.40;76.10
61674;BME280;47573;43.832;5.974;2022-12-18T06:31:51;96174.00;;;18.37;76.13
61674;BME280;47573;43.832;5.974;2022-12-18T06:33:34;96176.69;;;18.37;76.12
61674;BME280;47573;43.832;5.974;2022-12-18T06:35:14;96175.03;;;18.36;76.11
61674;BME280;47573;43.832;5.974;2022-12-18T06:36:55;96176.34;;;18.40;76.24
61674;BME280;47573;43.832;5.974;2022-12-18T06:38:37;96181.75;;;18.40;75.99
61674;BME280;47573;43.832;5.974;2022-12-18T06:40:18;96177.34;;;18.39;76.04
61674;BME280;47573;43.832;5.974;2022-12-18T06:41:58;96184.81;;;18.37;76.18
61674;BME280;47573;43.832;5.974;2022-12-18T06:43:39;96186.03;;;18.34;76.02
61674;BME280;47573;43.832;5.974;2022-12-18T06:45:19;96187.91;;;18.34;76.22
61674;BME280;47573;43.832;5.974;2022-12-18T06:47:00;96186.22;;;18.33;76.23
61674;BME280;47573;43.832;5.974;2022-12-18T06:48:42;96182.50;;;18.34;76.22
61674;BME280;47573;43.832;5.974;2022-12-18T06:50:22;96188.28;;;18.31;76.24
61674;BME280;47573;43.832;5.974;2022-12-18T06:52:03;96193.78;;;18.37;76.11
61674;BME280;47573;43.832;5.974;2022-12-18T06:53:43;96189.56;;;18.35;76.12
61674;BME280;47573;43.832;5.974;2022-12-18T06:55:24;96189.56;;;18.35;76.03
61674;BME280;47573;43.832;5.974;2022-12-18T06:57:04;96197.03;;;18.33;75.95
61674;BME280;47573;43.832;5.974;2022-12-18T06:58:45;96198.72;;;18.34;75.91
61674;BME280;47573;43.832;5.974;2022-12-18T07:00:26;96191.63;;;18.33;75.81
61674;BME280;47573;43.832;5.974;2022-12-18T07:02:06;96207.84;;;18.33;75.77
61674;BME280;47573;43.832;5.974;2022-12-18T07:03:51;96206.19;;;18.32;76.00
61674;BME280;47573;43.832;5.974;2022-12-18T07:05:32;96209.91;;;18.31;75.89
61674;BME280;47573;43.832;5.974;2022-12-18T07:07:12;96211.63;;;18.32;75.96
61674;BME280;47573;43.832;5.974;2022-12-18T07:08:53;96210.69;;;18.25;76.14
61674;BME280;47573;43.832;5.974;2022-12-18T07:10:40;96217.38;;;18.29;75.79
61674;BME280;47573;43.832;5.974;2022-12-18T07:12:21;96223.63;;;18.29;75.79
61674;BME280;47573;43.832;5.974;2022-12-18T07:14:01;96219.44;;;18.27;75.84
61674;BME280;47573;43.832;5.974;2022-12-18T07:15:42;96225.69;;;18.27;75.78
61674;BME280;47573;43.832;5.974;2022-12-18T07:17:23;96227.56;;;18.27;76.03
61674;BME280;47573;43.832;5.974;2022-12-18T07:19:05;96228.19;;;18.29;75.83
61674;BME280;47573;43.832;5.974;2022-12-18T07:20:45;96242.34;;;18.31;75.78
61674;BME280;47573;43.832;5.974;2022-12-18T07:22:26;96230.69;;;18.30;75.83
61674;BME280;47573;43.832;5.974;2022-12-18T07:24:07;96244.50;;;18.35;75.63
61674;BME280;47573;43.832;5.974;2022-12-18T07:25:47;96240.78;;;18.36;75.57
61674;BME280;47573;43.832;5.974;2022-12-18T07:27:28;96247.00;;;18.37;75.45
61674;BME280;47573;43.832;5.974;2022-12-18T07:29:08;96235.75;;;18.33;75.57
61674;BME280;47573;43.832;5.974;2022-12-18T07:30:49;96242.63;;;18.36;75.54
61674;BME280;47573;43.832;5.974;2022-12-18T07:32:30;96247.00;;;18.37;75.50
61674;BME280;47573;43.832;5.974;2022-12-18T07:34:12;96248.69;;;18.38;75.53
61674;BME280;47573;43.832;5.974;2022-12-18T07:35:53;96244.94;;;18.39;75.18
61674;BME280;47573;43.832;5.974;2022-12-18T07:37:33;96256.41;;;18.41;75.50
61674;BME280;47573;43.832;5.974;2022-12-18T07:39:14;96261.63;;;18.42;75.39
61674;BME280;47573;43.832;5.974;2022-12-18T07:40:59;96271.97;;;18.39;75.41
61674;BME280;47573;43.832;5.974;2022-12-18T07:42:40;96274.31;;;18.42;75.45
61674;BME280;47573;43.832;5.974;2022-12-18T07:44:20;96266.56;;;18.39;75.34
61674;BME280;47573;43.832;5.974;2022-12-18T07:46:01;96270.13;;;18.39;75.43
61674;BME280;47573;43.832;5.974;2022-12-18T07:47:41;96280.75;;;18.41;75.09
61674;BME280;47573;43.832;5.974;2022-12-18T07:49:23;96284.50;;;18.40;75.28
61674;BME280;47573;43.832;5.974;2022-12-18T07:51:05;96280.41;;;18.44;75.04
61674;BME280;47573;43.832;5.974;2022-12-18T07:52:46;96284.41;;;18.48;75.01
61674;BME280;47573;43.832;5.974;2022-12-18T07:54:27;96288.75;;;18.49;74.97
61674;BME280;47573;43.832;5.974;2022-12-18T07:56:09;96286.34;;;18.54;74.74
61674;BME280;47573;43.832;5.974;2022-12-18T07:57:50;96288.03;;;18.55;74.62
61674;BME280;47573;43.832;5.974;2022-12-18T07:59:30;96291.81;;;18.61;74.19
61674;BME280;47573;43.832;5.974;2022-12-18T08:01:12;96288.25;;;18.60;74.23
61674;BME280;47573;43.832;5.974;2022-12-18T08:02:52;96282.66;;;18.62;74.29
61674;BME280;47573;43.832;5.974;2022-12-18T08:04:34;96288.91;;;18.62;74.26
61674;BME280;47573;43.832;5.974;2022-12-18T08:06:14;96293.53;;;18.68;74.08
61674;BME280;47573;43.832;5.974;2022-12-18T08:07:55;96291.03;;;18.67;73.92
61674;BME280;47573;43.832;5.974;2022-12-18T08:09:35;96295.25;;;18.69;74.17
61674;BME280;47573;43.832;5.974;2022-12-18T08:11:16;96296.91;;;18.70;74.02
61674;BME280;47573;43.832;5.974;2022-12-18T08:12:56;96307.34;;;18.73;73.96
61674;BME280;47573;43.832;5.974;2022-12-18T08:14:37;96305.66;;;18.72;73.80
61674;BME280;47573;43.832;5.974;2022-12-18T08:16:18;96304.84;;;18.72;73.82
61674;BME280;47573;43.832;5.974;2022-12-18T08:17:59;96301.88;;;18.67;74.03
61674;BME280;47573;43.832;5.974;2022-12-18T08:19:41;96298.19;;;18.74;73.79
61674;BME280;47573;43.832;5.974;2022-12-18T08:21:22;96299.03;;;18.75;73.92
61674;BME280;47573;43.832;5.974;2022-12-18T08:23:03;96311.06;;;18.72;73.89
61674;BME280;47573;43.832;5.974;2022-12-18T08:24:44;96307.34;;;18.73;73.93
61674;BME280;47573;43.832;5.974;2022-12-18T08:26:26;96307.34;;;18.73;73.72
61674;BME280;47573;43.832;5.974;2022-12-18T08:28:06;96306.31;;;18.74;73.58
61674;BME280;47573;43.832;5.974;2022-12-18T08:29:47;96310.28;;;18.78;73.59
61674;BME280;47573;43.832;5.974;2022-12-18T08:31:29;96316.94;;;18.76;73.63
61674;BME280;47573;43.832;5.974;2022-12-18T08:33:09;96317.13;;;18.74;73.67
61674;BME280;47573;43.832;5.974;2022-12-18T08:34:51;96317.41;;;18.79;73.37
61674;BME280;47573;43.832;5.974;2022-12-18T08:36:32;96320.81;;;18.88;73.64
61674;BME280;47573;43.832;5.974;2022-12-18T08:38:12;96316.91;;;18.90;73.24
61674;BME280;47573;43.832;5.974;2022-12-18T08:39:52;96327.19;;;19.01;73.06
61674;BME280;47573;43.832;5.974;2022-12-18T08:41:33;96327.97;;;18.95;73.79
61674;BME280;47573;43.832;5.974;2022-12-18T08:43:13;96326.66;;;18.91;73.99
61674;BME280;47573;43.832;5.974;2022-12-18T08:44:54;96327.72;;;18.90;74.07
61674;BME280;47573;43.832;5.974;2022-12-18T08:46:36;96327.06;;;18.88;74.00
61674;BME280;47573;43.832;5.974;2022-12-18T08:48:17;96335.94;;;19.03;73.78
61674;BME280;47573;43.832;5.974;2022-12-18T08:49:59;96334.28;;;19.02;73.92
61674;BME280;47573;43.832;5.974;2022-12-18T08:51:39;96323.69;;;19.07;73.73
61674;BME280;47573;43.832;5.974;2022-12-18T08:53:20;96333.06;;;19.05;73.93
61674;BME280;47573;43.832;5.974;2022-12-18T08:55:00;96338.00;;;19.01;74.69
61674;BME280;47573;43.832;5.974;2022-12-18T08:56:41;96330.41;;;19.11;74.15
61674;BME280;47573;43.832;5.974;2022-12-18T08:58:21;96339.56;;;19.10;73.78
61674;BME280;47573;43.832;5.974;2022-12-18T09:00:03;96343.50;;;19.08;74.03